sensor_id;sensor_type;location;lat;lon;timestamp;P1;durP1;ratioP1;P2;durP2;ratioP2
69310;SDS011;56430;48.154;16.458;2023-01-09T00:00:24;20.90;;;7.88;;
69310;SDS011;56430;48.154;16.458;2023-01-09T00:02:52;23.57;;;8.13;;
69310;SDS011;56430;48.154;16.458;2023-01-09T00:05:19;23.77;;;8.25;;
69310;SDS011;56430;48.154;16.458;2023-01-09T00:07:48;20.42;;;7.47;;
69310;SDS011;56430;48.154;16.458;2023-01-09T00:10:15;21.33;;;7.97;;
69310;SDS011;56430;48.154;16.458;2023-01-09T00:12:42;25.52;;;7.97;;
69310;SDS011;56430;48.154;16.458;2023-01-09T00:15:10;27.67;;;9.20;;
69310;SDS011;56430;48.154;16.458;2023-01-09T00:20:32;23.50;;;8.27;;
69310;SDS011;56430;48.154;16.458;2023-01-09T00:23:00;22.05;;;7.75;;
69310;SDS011;56430;48.154;16.458;2023-01-09T00:25:28;25.52;;;9.45;;
69310;SDS011;56430;48.154;16.458;2023-01-09T00:27:55;22.27;;;7.97;;
69310;SDS011;56430;48.154;16.458;2023-01-09T00:30:22;23.42;;;8.23;;
69310;SDS011;56430;48.154;16.458;2023-01-09T00:32:49;15.35;;;5.80;;
69310;SDS011;56430;48.154;16.458;2023-01-09T00:35:17;23.17;;;7.90;;
69310;SDS011;56430;48.154;16.458;2023-01-09T00:37:44;18.92;;;7.20;;
69310;SDS011;56430;48.154;16.458;2023-01-09T00:40:13;18.57;;;7.93;;
69310;SDS011;56430;48.154;16.458;2023-01-09T00:42:42;20.15;;;8.10;;
69310;SDS011;56430;48.154;16.458;2023-01-09T00:45:13;20.30;;;7.22;;
69310;SDS011;56430;48.154;16.458;2023-01-09T00:47:42;19.95;;;7.07;;
69310;SDS011;56430;48.154;16.458;2023-01-09T00:50:11;16.30;;;6.70;;
69310;SDS011;56430;48.154;16.458;2023-01-09T00:52:41;17.03;;;7.27;;
69310;SDS011;56430;48.154;16.458;2023-01-09T00:55:09;15.90;;;6.50;;
69310;SDS011;56430;48.154;16.458;2023-01-09T00:57:38;15.35;;;6.88;;
69310;SDS011;56430;48.154;16.458;2023-01-09T01:00:06;17.38;;;6.60;;
69310;SDS011;56430;48.154;16.458;2023-01-09T01:02:34;18.25;;;7.30;;
69310;SDS011;56430;48.154;16.458;2023-01-09T01:05:01;18.17;;;6.63;;
69310;SDS011;56430;48.154;16.458;2023-01-09T01:07:46;15.88;;;6.63;;
69310;SDS011;56430;48.154;16.458;2023-01-09T01:10:14;13.43;;;6.35;;
69310;SDS011;56430;48.154;16.458;2023-01-09T01:12:46;14.43;;;6.20;;
69310;SDS011;56430;48.154;16.458;2023-01-09T01:15:14;14.95;;;5.97;;
69310;SDS011;56430;48.154;16.458;2023-01-09T01:17:42;18.93;;;6.57;;
69310;SDS011;56430;48.154;16.458;2023-01-09T01:20:10;16.48;;;6.15;;
69310;SDS011;56430;48.154;16.458;2023-01-09T01:22:39;16.88;;;7.13;;
69310;SDS011;56430;48.154;16.458;2023-01-09T01:25:08;15.35;;;5.85;;
69310;SDS011;56430;48.154;16.458;2023-01-09T01:27:36;15.43;;;6.13;;
69310;SDS011;56430;48.154;16.458;2023-01-09T01:30:06;16.93;;;6.63;;
69310;SDS011;56430;48.154;16.458;2023-01-09T01:32:34;15.32;;;6.40;;
69310;SDS011;56430;48.154;16.458;2023-01-09T01:35:02;13.15;;;5.78;;
69310;SDS011;56430;48.154;16.458;2023-01-09T01:37:30;15.73;;;6.55;;
69310;SDS011;56430;48.154;16.458;2023-01-09T01:39:57;14.60;;;5.88;;
69310;SDS011;56430;48.154;16.458;2023-01-09T01:42:24;15.27;;;6.30;;
69310;SDS011;56430;48.154;16.458;2023-01-09T01:44:56;16.05;;;6.15;;
69310;SDS011;56430;48.154;16.458;2023-01-09T01:47:35;13.27;;;5.28;;
69310;SDS011;56430;48.154;16.458;2023-01-09T01:50:07;15.45;;;6.75;;
69310;SDS011;56430;48.154;16.458;2023-01-09T01:52:37;14.55;;;5.80;;
69310;SDS011;56430;48.154;16.458;2023-01-09T01:55:06;14.20;;;6.00;;
69310;SDS011;56430;48.154;16.458;2023-01-09T01:57:34;15.13;;;6.72;;
69310;SDS011;56430;48.154;16.458;2023-01-09T02:00:04;15.45;;;5.95;;
69310;SDS011;56430;48.154;16.458;2023-01-09T02:02:34;12.77;;;5.63;;
69310;SDS011;56430;48.154;16.458;2023-01-09T02:05:01;12.75;;;5.50;;
69310;SDS011;56430;48.154;16.458;2023-01-09T02:07:28;16.37;;;6.53;;
69310;SDS011;56430;48.154;16.458;2023-01-09T02:09:56;16.50;;;6.57;;
69310;SDS011;56430;48.154;16.458;2023-01-09T02:12:24;16.65;;;6.47;;
69310;SDS011;56430;48.154;16.458;2023-01-09T02:14:53;15.25;;;6.13;;
69310;SDS011;56430;48.154;16.458;2023-01-09T02:17:29;15.57;;;6.72;;
69310;SDS011;56430;48.154;16.458;2023-01-09T02:20:17;14.17;;;5.47;;
69310;SDS011;56430;48.154;16.458;2023-01-09T02:22:59;12.48;;;5.63;;
69310;SDS011;56430;48.154;16.458;2023-01-09T02:28:39;14.18;;;5.78;;
69310;SDS011;56430;48.154;16.458;2023-01-09T02:31:19;13.32;;;6.15;;
69310;SDS011;56430;48.154;16.458;2023-01-09T02:33:49;13.63;;;5.80;;
69310;SDS011;56430;48.154;16.458;2023-01-09T02:36:22;14.27;;;6.30;;
69310;SDS011;56430;48.154;16.458;2023-01-09T02:38:55;16.83;;;6.95;;
69310;SDS011;56430;48.154;16.458;2023-01-09T02:41:29;14.93;;;6.50;;
69310;SDS011;56430;48.154;16.458;2023-01-09T02:44:10;16.95;;;6.22;;
69310;SDS011;56430;48.154;16.458;2023-01-09T02:46:39;16.57;;;7.00;;
69310;SDS011;56430;48.154;16.458;2023-01-09T02:49:07;15.63;;;5.72;;
69310;SDS011;56430;48.154;16.458;2023-01-09T02:51:35;14.35;;;5.85;;
69310;SDS011;56430;48.154;16.458;2023-01-09T02:54:12;15.88;;;6.07;;
69310;SDS011;56430;48.154;16.458;2023-01-09T02:56:53;17.00;;;7.05;;
69310;SDS011;56430;48.154;16.458;2023-01-09T02:59:30;15.47;;;6.20;;
69310;SDS011;56430;48.154;16.458;2023-01-09T03:02:05;15.02;;;6.85;;
69310;SDS011;56430;48.154;16.458;2023-01-09T03:04:40;16.13;;;7.10;;
69310;SDS011;56430;48.154;16.458;2023-01-09T03:07:12;13.35;;;5.50;;
69310;SDS011;56430;48.154;16.458;2023-01-09T03:09:43;17.88;;;6.32;;
69310;SDS011;56430;48.154;16.458;2023-01-09T03:12:14;15.60;;;6.23;;
69310;SDS011;56430;48.154;16.458;2023-01-09T03:14:45;14.90;;;6.30;;
69310;SDS011;56430;48.154;16.458;2023-01-09T03:17:17;13.60;;;5.72;;
69310;SDS011;56430;48.154;16.458;2023-01-09T03:19:48;15.60;;;6.30;;
69310;SDS011;56430;48.154;16.458;2023-01-09T03:22:16;14.90;;;6.60;;
69310;SDS011;56430;48.154;16.458;2023-01-09T03:24:44;14.73;;;6.20;;
69310;SDS011;56430;48.154;16.458;2023-01-09T03:27:11;15.13;;;6.40;;
69310;SDS011;56430;48.154;16.458;2023-01-09T03:29:38;15.20;;;6.53;;
69310;SDS011;56430;48.154;16.458;2023-01-09T03:32:06;17.33;;;6.80;;
69310;SDS011;56430;48.154;16.458;2023-01-09T03:34:34;15.75;;;6.00;;
69310;SDS011;56430;48.154;16.458;2023-01-09T03:37:01;13.80;;;5.83;;
69310;SDS011;56430;48.154;16.458;2023-01-09T03:39:30;17.70;;;6.53;;
69310;SDS011;56430;48.154;16.458;2023-01-09T03:41:57;17.00;;;7.03;;
69310;SDS011;56430;48.154;16.458;2023-01-09T03:44:24;17.98;;;7.30;;
69310;SDS011;56430;48.154;16.458;2023-01-09T03:46:51;18.80;;;7.18;;
69310;SDS011;56430;48.154;16.458;2023-01-09T03:49:19;18.30;;;7.63;;
69310;SDS011;56430;48.154;16.458;2023-01-09T03:51:47;17.92;;;7.50;;
69310;SDS011;56430;48.154;16.458;2023-01-09T03:54:14;17.88;;;7.65;;
69310;SDS011;56430;48.154;16.458;2023-01-09T03:56:42;19.25;;;7.85;;
69310;SDS011;56430;48.154;16.458;2023-01-09T03:59:09;19.42;;;7.72;;
69310;SDS011;56430;48.154;16.458;2023-01-09T04:01:36;16.17;;;7.43;;
69310;SDS011;56430;48.154;16.458;2023-01-09T04:04:03;19.75;;;6.95;;
69310;SDS011;56430;48.154;16.458;2023-01-09T04:06:31;17.70;;;6.50;;
69310;SDS011;56430;48.154;16.458;2023-01-09T04:08:59;19.65;;;7.80;;
69310;SDS011;56430;48.154;16.458;2023-01-09T04:11:27;18.90;;;6.53;;
69310;SDS011;56430;48.154;16.458;2023-01-09T04:13:54;18.43;;;7.43;;
69310;SDS011;56430;48.154;16.458;2023-01-09T04:16:21;17.10;;;7.07;;
69310;SDS011;56430;48.154;16.458;2023-01-09T04:18:48;18.33;;;7.63;;
69310;SDS011;56430;48.154;16.458;2023-01-09T04:21:16;16.58;;;6.50;;
69310;SDS011;56430;48.154;16.458;2023-01-09T04:23:43;17.65;;;7.20;;
69310;SDS011;56430;48.154;16.458;2023-01-09T04:26:12;16.17;;;6.83;;
69310;SDS011;56430;48.154;16.458;2023-01-09T04:28:39;18.15;;;7.32;;
69310;SDS011;56430;48.154;16.458;2023-01-09T04:31:06;16.02;;;6.60;;
69310;SDS011;56430;48.154;16.458;2023-01-09T04:33:34;17.20;;;6.82;;
69310;SDS011;56430;48.154;16.458;2023-01-09T04:36:02;19.42;;;8.50;;
69310;SDS011;56430;48.154;16.458;2023-01-09T04:38:29;17.80;;;7.03;;
69310;SDS011;56430;48.154;16.458;2023-01-09T04:40:56;17.50;;;6.80;;
69310;SDS011;56430;48.154;16.458;2023-01-09T04:43:25;16.02;;;6.57;;
69310;SDS011;56430;48.154;16.458;2023-01-09T04:45:52;15.55;;;6.65;;
69310;SDS011;56430;48.154;16.458;2023-01-09T04:48:20;16.83;;;7.10;;
69310;SDS011;56430;48.154;16.458;2023-01-09T04:50:47;12.97;;;5.93;;
69310;SDS011;56430;48.154;16.458;2023-01-09T04:53:14;15.07;;;6.45;;
69310;SDS011;56430;48.154;16.458;2023-01-09T04:55:41;9.45;;;3.65;;
69310;SDS011;56430;48.154;16.458;2023-01-09T04:58:08;7.22;;;2.83;;
69310;SDS011;56430;48.154;16.458;2023-01-09T05:00:37;5.70;;;2.10;;
69310;SDS011;56430;48.154;16.458;2023-01-09T05:03:04;3.63;;;1.63;;
69310;SDS011;56430;48.154;16.458;2023-01-09T05:05:31;5.50;;;1.92;;
69310;SDS011;56430;48.154;16.458;2023-01-09T05:07:59;3.40;;;1.02;;
69310;SDS011;56430;48.154;16.458;2023-01-09T05:10:26;3.80;;;1.42;;
69310;SDS011;56430;48.154;16.458;2023-01-09T05:12:53;8.57;;;2.10;;
69310;SDS011;56430;48.154;16.458;2023-01-09T05:15:20;6.70;;;1.90;;
69310;SDS011;56430;48.154;16.458;2023-01-09T05:17:49;3.55;;;1.45;;
69310;SDS011;56430;48.154;16.458;2023-01-09T05:20:16;3.58;;;1.20;;
69310;SDS011;56430;48.154;16.458;2023-01-09T05:22:43;3.15;;;1.00;;
69310;SDS011;56430;48.154;16.458;2023-01-09T05:25:11;7.05;;;1.75;;
69310;SDS011;56430;48.154;16.458;2023-01-09T05:27:38;3.93;;;1.50;;
69310;SDS011;56430;48.154;16.458;2023-01-09T05:30:09;6.50;;;1.60;;
69310;SDS011;56430;48.154;16.458;2023-01-09T05:32:37;2.78;;;0.75;;
69310;SDS011;56430;48.154;16.458;2023-01-09T05:35:06;4.80;;;1.30;;
69310;SDS011;56430;48.154;16.458;2023-01-09T05:37:34;5.22;;;1.02;;
69310;SDS011;56430;48.154;16.458;2023-01-09T05:40:01;3.87;;;1.00;;
69310;SDS011;56430;48.154;16.458;2023-01-09T05:42:29;5.60;;;1.08;;
69310;SDS011;56430;48.154;16.458;2023-01-09T05:44:56;3.67;;;1.20;;
69310;SDS011;56430;48.154;16.458;2023-01-09T05:47:23;2.53;;;0.80;;
69310;SDS011;56430;48.154;16.458;2023-01-09T05:49:51;3.05;;;1.02;;
69310;SDS011;56430;48.154;16.458;2023-01-09T05:52:22;5.83;;;1.27;;
69310;SDS011;56430;48.154;16.458;2023-01-09T05:54:49;3.03;;;1.00;;
69310;SDS011;56430;48.154;16.458;2023-01-09T05:57:16;3.72;;;1.35;;
69310;SDS011;56430;48.154;16.458;2023-01-09T05:59:43;3.30;;;1.10;;
69310;SDS011;56430;48.154;16.458;2023-01-09T06:02:11;5.40;;;1.23;;
69310;SDS011;56430;48.154;16.458;2023-01-09T06:04:38;8.87;;;1.07;;
69310;SDS011;56430;48.154;16.458;2023-01-09T06:07:05;3.88;;;1.30;;
69310;SDS011;56430;48.154;16.458;2023-01-09T06:09:34;4.22;;;0.82;;
69310;SDS011;56430;48.154;16.458;2023-01-09T06:12:01;3.50;;;1.08;;
69310;SDS011;56430;48.154;16.458;2023-01-09T06:14:29;2.85;;;0.57;;
69310;SDS011;56430;48.154;16.458;2023-01-09T06:16:56;3.30;;;0.90;;
69310;SDS011;56430;48.154;16.458;2023-01-09T06:19:23;3.92;;;1.08;;
69310;SDS011;56430;48.154;16.458;2023-01-09T06:21:51;4.25;;;0.82;;
69310;SDS011;56430;48.154;16.458;2023-01-09T06:24:18;3.38;;;0.85;;
69310;SDS011;56430;48.154;16.458;2023-01-09T06:26:47;5.53;;;1.10;;
69310;SDS011;56430;48.154;16.458;2023-01-09T06:29:15;4.10;;;1.20;;
69310;SDS011;56430;48.154;16.458;2023-01-09T06:31:42;4.03;;;1.10;;
69310;SDS011;56430;48.154;16.458;2023-01-09T06:34:09;2.65;;;0.73;;
69310;SDS011;56430;48.154;16.458;2023-01-09T06:36:37;4.28;;;1.45;;
69310;SDS011;56430;48.154;16.458;2023-01-09T06:39:04;2.92;;;1.13;;
69310;SDS011;56430;48.154;16.458;2023-01-09T06:41:32;3.60;;;0.83;;
69310;SDS011;56430;48.154;16.458;2023-01-09T06:44:00;2.70;;;0.65;;
69310;SDS011;56430;48.154;16.458;2023-01-09T06:46:27;4.13;;;1.05;;
69310;SDS011;56430;48.154;16.458;2023-01-09T06:48:55;4.47;;;0.85;;
69310;SDS011;56430;48.154;16.458;2023-01-09T06:51:22;2.90;;;1.10;;
69310;SDS011;56430;48.154;16.458;2023-01-09T06:53:49;4.57;;;0.93;;
69310;SDS011;56430;48.154;16.458;2023-01-09T06:56:17;2.30;;;0.68;;
69310;SDS011;56430;48.154;16.458;2023-01-09T06:58:45;3.90;;;0.88;;
69310;SDS011;56430;48.154;16.458;2023-01-09T07:01:14;4.18;;;0.90;;
69310;SDS011;56430;48.154;16.458;2023-01-09T07:03:41;2.50;;;0.70;;
69310;SDS011;56430;48.154;16.458;2023-01-09T07:06:08;5.03;;;1.20;;
69310;SDS011;56430;48.154;16.458;2023-01-09T07:08:35;3.33;;;0.50;;
69310;SDS011;56430;48.154;16.458;2023-01-09T07:11:03;3.05;;;0.77;;
69310;SDS011;56430;48.154;16.458;2023-01-09T07:13:30;3.13;;;0.93;;
69310;SDS011;56430;48.154;16.458;2023-01-09T07:15:57;1.92;;;0.60;;
69310;SDS011;56430;48.154;16.458;2023-01-09T07:18:26;3.30;;;0.40;;
69310;SDS011;56430;48.154;16.458;2023-01-09T07:20:53;3.15;;;0.80;;
69310;SDS011;56430;48.154;16.458;2023-01-09T07:23:20;3.15;;;1.10;;
69310;SDS011;56430;48.154;16.458;2023-01-09T07:25:48;1.98;;;0.50;;
69310;SDS011;56430;48.154;16.458;2023-01-09T07:28:17;2.83;;;0.82;;
69310;SDS011;56430;48.154;16.458;2023-01-09T07:30:44;5.03;;;1.60;;
69310;SDS011;56430;48.154;16.458;2023-01-09T07:33:11;4.50;;;1.17;;
69310;SDS011;56430;48.154;16.458;2023-01-09T07:35:40;5.05;;;1.15;;
69310;SDS011;56430;48.154;16.458;2023-01-09T07:38:07;4.25;;;1.10;;
69310;SDS011;56430;48.154;16.458;2023-01-09T07:40:34;4.57;;;1.38;;
69310;SDS011;56430;48.154;16.458;2023-01-09T07:43:02;3.70;;;1.10;;
69310;SDS011;56430;48.154;16.458;2023-01-09T07:45:29;4.18;;;1.55;;
69310;SDS011;56430;48.154;16.458;2023-01-09T07:47:56;5.47;;;1.05;;
69310;SDS011;56430;48.154;16.458;2023-01-09T07:50:23;4.20;;;1.38;;
69310;SDS011;56430;48.154;16.458;2023-01-09T07:52:52;3.58;;;1.15;;
69310;SDS011;56430;48.154;16.458;2023-01-09T07:55:19;4.60;;;1.50;;
69310;SDS011;56430;48.154;16.458;2023-01-09T07:57:47;2.83;;;0.90;;
69310;SDS011;56430;48.154;16.458;2023-01-09T08:00:15;4.32;;;1.40;;
69310;SDS011;56430;48.154;16.458;2023-01-09T08:02:45;5.35;;;1.40;;
69310;SDS011;56430;48.154;16.458;2023-01-09T08:05:17;4.72;;;1.55;;
69310;SDS011;56430;48.154;16.458;2023-01-09T08:07:44;5.73;;;1.87;;
69310;SDS011;56430;48.154;16.458;2023-01-09T08:10:13;5.63;;;1.40;;
69310;SDS011;56430;48.154;16.458;2023-01-09T08:12:44;6.07;;;1.75;;
69310;SDS011;56430;48.154;16.458;2023-01-09T08:15:11;5.93;;;1.80;;
69310;SDS011;56430;48.154;16.458;2023-01-09T08:17:39;5.63;;;1.63;;
69310;SDS011;56430;48.154;16.458;2023-01-09T08:20:08;4.07;;;1.27;;
69310;SDS011;56430;48.154;16.458;2023-01-09T08:22:36;8.52;;;3.78;;
69310;SDS011;56430;48.154;16.458;2023-01-09T08:25:05;8.65;;;4.10;;
69310;SDS011;56430;48.154;16.458;2023-01-09T08:27:34;8.85;;;4.35;;
69310;SDS011;56430;48.154;16.458;2023-01-09T08:30:02;7.80;;;3.55;;
69310;SDS011;56430;48.154;16.458;2023-01-09T08:32:29;9.60;;;4.47;;
69310;SDS011;56430;48.154;16.458;2023-01-09T08:34:56;10.93;;;4.38;;
69310;SDS011;56430;48.154;16.458;2023-01-09T08:37:24;11.93;;;4.20;;
69310;SDS011;56430;48.154;16.458;2023-01-09T08:39:51;11.15;;;4.63;;
69310;SDS011;56430;48.154;16.458;2023-01-09T08:42:18;10.98;;;5.63;;
69310;SDS011;56430;48.154;16.458;2023-01-09T08:45:05;12.33;;;5.47;;
69310;SDS011;56430;48.154;16.458;2023-01-09T08:47:50;11.25;;;5.30;;
69310;SDS011;56430;48.154;16.458;2023-01-09T08:50:18;13.98;;;6.25;;
69310;SDS011;56430;48.154;16.458;2023-01-09T08:52:45;13.05;;;6.10;;
69310;SDS011;56430;48.154;16.458;2023-01-09T08:55:13;11.68;;;5.68;;
69310;SDS011;56430;48.154;16.458;2023-01-09T08:57:46;14.10;;;7.67;;
69310;SDS011;56430;48.154;16.458;2023-01-09T09:00:15;14.57;;;6.70;;
69310;SDS011;56430;48.154;16.458;2023-01-09T09:02:43;14.23;;;6.55;;
69310;SDS011;56430;48.154;16.458;2023-01-09T09:05:11;18.38;;;7.95;;
69310;SDS011;56430;48.154;16.458;2023-01-09T09:07:38;14.15;;;5.95;;
69310;SDS011;56430;48.154;16.458;2023-01-09T09:10:06;16.00;;;8.17;;
69310;SDS011;56430;48.154;16.458;2023-01-09T09:12:34;15.93;;;6.85;;
69310;SDS011;56430;48.154;16.458;2023-01-09T09:15:02;12.70;;;6.05;;
69310;SDS011;56430;48.154;16.458;2023-01-09T09:17:39;12.82;;;5.80;;
69310;SDS011;56430;48.154;16.458;2023-01-09T09:20:07;13.98;;;7.20;;
69310;SDS011;56430;48.154;16.458;2023-01-09T09:22:35;14.40;;;6.80;;
69310;SDS011;56430;48.154;16.458;2023-01-09T09:25:03;14.35;;;6.85;;
69310;SDS011;56430;48.154;16.458;2023-01-09T09:27:31;13.18;;;7.05;;
69310;SDS011;56430;48.154;16.458;2023-01-09T09:29:58;13.50;;;5.93;;
69310;SDS011;56430;48.154;16.458;2023-01-09T09:32:25;13.32;;;5.72;;
69310;SDS011;56430;48.154;16.458;2023-01-09T09:34:54;12.03;;;5.40;;
69310;SDS011;56430;48.154;16.458;2023-01-09T09:37:21;11.68;;;5.75;;
69310;SDS011;56430;48.154;16.458;2023-01-09T09:39:49;12.90;;;5.80;;
69310;SDS011;56430;48.154;16.458;2023-01-09T09:45:35;12.05;;;4.47;;
69310;SDS011;56430;48.154;16.458;2023-01-09T09:48:10;9.97;;;4.73;;
69310;SDS011;56430;48.154;16.458;2023-01-09T09:50:57;10.77;;;4.63;;
69310;SDS011;56430;48.154;16.458;2023-01-09T09:53:38;9.35;;;2.58;;
69310;SDS011;56430;48.154;16.458;2023-01-09T09:56:09;6.15;;;2.35;;
69310;SDS011;56430;48.154;16.458;2023-01-09T09:58:39;4.68;;;2.00;;
69310;SDS011;56430;48.154;16.458;2023-01-09T10:01:07;5.87;;;1.70;;
69310;SDS011;56430;48.154;16.458;2023-01-09T10:03:36;6.57;;;1.60;;
69310;SDS011;56430;48.154;16.458;2023-01-09T10:06:06;3.42;;;1.45;;
69310;SDS011;56430;48.154;16.458;2023-01-09T10:08:37;6.80;;;2.13;;
69310;SDS011;56430;48.154;16.458;2023-01-09T10:11:10;4.43;;;1.40;;
69310;SDS011;56430;48.154;16.458;2023-01-09T10:13:41;4.73;;;1.40;;
69310;SDS011;56430;48.154;16.458;2023-01-09T10:16:28;3.97;;;1.20;;
69310;SDS011;56430;48.154;16.458;2023-01-09T10:19:08;3.58;;;1.20;;
69310;SDS011;56430;48.154;16.458;2023-01-09T10:21:43;3.10;;;0.95;;
69310;SDS011;56430;48.154;16.458;2023-01-09T10:24:21;3.15;;;0.68;;
69310;SDS011;56430;48.154;16.458;2023-01-09T10:26:56;3.80;;;0.80;;
69310;SDS011;56430;48.154;16.458;2023-01-09T10:32:16;3.75;;;0.70;;
69310;SDS011;56430;48.154;16.458;2023-01-09T10:34:52;2.25;;;0.50;;
69310;SDS011;56430;48.154;16.458;2023-01-09T10:37:28;5.22;;;1.23;;
69310;SDS011;56430;48.154;16.458;2023-01-09T10:39:58;2.47;;;0.50;;
69310;SDS011;56430;48.154;16.458;2023-01-09T10:42:29;2.60;;;0.60;;
69310;SDS011;56430;48.154;16.458;2023-01-09T10:45:01;2.78;;;0.60;;
69310;SDS011;56430;48.154;16.458;2023-01-09T10:47:30;1.90;;;0.40;;
69310;SDS011;56430;48.154;16.458;2023-01-09T10:49:59;1.90;;;0.45;;
69310;SDS011;56430;48.154;16.458;2023-01-09T10:52:32;2.60;;;0.40;;
69310;SDS011;56430;48.154;16.458;2023-01-09T10:55:01;4.47;;;0.65;;
69310;SDS011;56430;48.154;16.458;2023-01-09T10:57:40;1.60;;;0.20;;
69310;SDS011;56430;48.154;16.458;2023-01-09T11:02:41;3.78;;;1.00;;
69310;SDS011;56430;48.154;16.458;2023-01-09T11:05:10;3.57;;;0.60;;
69310;SDS011;56430;48.154;16.458;2023-01-09T11:07:41;2.28;;;0.57;;
69310;SDS011;56430;48.154;16.458;2023-01-09T11:10:10;2.60;;;0.45;;
69310;SDS011;56430;48.154;16.458;2023-01-09T11:12:38;2.13;;;0.47;;
69310;SDS011;56430;48.154;16.458;2023-01-09T11:15:17;1.80;;;0.30;;
69310;SDS011;56430;48.154;16.458;2023-01-09T11:17:53;1.53;;;0.20;;
69310;SDS011;56430;48.154;16.458;2023-01-09T11:20:24;1.90;;;0.30;;
69310;SDS011;56430;48.154;16.458;2023-01-09T11:22:55;1.55;;;0.10;;
69310;SDS011;56430;48.154;16.458;2023-01-09T11:25:23;0.80;;;0.10;;
69310;SDS011;56430;48.154;16.458;2023-01-09T11:28:02;0.90;;;0.10;;
69310;SDS011;56430;48.154;16.458;2023-01-09T11:30:31;1.07;;;0.10;;
69310;SDS011;56430;48.154;16.458;2023-01-09T11:33:11;0.90;;;0.08;;
69310;SDS011;56430;48.154;16.458;2023-01-09T11:35:48;0.90;;;0.08;;
69310;SDS011;56430;48.154;16.458;2023-01-09T11:38:23;1.00;;;0.00;;
69310;SDS011;56430;48.154;16.458;2023-01-09T11:40:51;1.10;;;0.10;;
69310;SDS011;56430;48.154;16.458;2023-01-09T11:43:21;2.70;;;0.20;;
69310;SDS011;56430;48.154;16.458;2023-01-09T11:46:00;2.22;;;0.10;;
69310;SDS011;56430;48.154;16.458;2023-01-09T11:48:32;1.00;;;0.10;;
69310;SDS011;56430;48.154;16.458;2023-01-09T11:51:02;1.23;;;0.20;;
69310;SDS011;56430;48.154;16.458;2023-01-09T11:53:42;0.70;;;0.05;;
69310;SDS011;56430;48.154;16.458;2023-01-09T11:56:14;1.10;;;0.10;;
69310;SDS011;56430;48.154;16.458;2023-01-09T11:58:42;1.08;;;0.10;;
69310;SDS011;56430;48.154;16.458;2023-01-09T12:01:15;1.33;;;0.10;;
69310;SDS011;56430;48.154;16.458;2023-01-09T12:03:56;1.10;;;0.20;;
69310;SDS011;56430;48.154;16.458;2023-01-09T12:06:37;1.35;;;0.20;;
69310;SDS011;56430;48.154;16.458;2023-01-09T12:09:11;1.33;;;0.10;;
69310;SDS011;56430;48.154;16.458;2023-01-09T12:11:42;0.68;;;0.00;;
69310;SDS011;56430;48.154;16.458;2023-01-09T12:14:25;0.63;;;0.00;;
69310;SDS011;56430;48.154;16.458;2023-01-09T12:17:12;2.10;;;0.10;;
69310;SDS011;56430;48.154;16.458;2023-01-09T12:20:09;0.68;;;0.00;;
69310;SDS011;56430;48.154;16.458;2023-01-09T12:22:51;0.90;;;0.10;;
69310;SDS011;56430;48.154;16.458;2023-01-09T12:25:28;0.82;;;0.00;;
69310;SDS011;56430;48.154;16.458;2023-01-09T12:28:04;2.25;;;0.20;;
69310;SDS011;56430;48.154;16.458;2023-01-09T12:30:48;1.15;;;0.10;;
69310;SDS011;56430;48.154;16.458;2023-01-09T12:33:26;0.80;;;0.10;;
69310;SDS011;56430;48.154;16.458;2023-01-09T12:36:05;0.90;;;0.10;;
69310;SDS011;56430;48.154;16.458;2023-01-09T12:38:39;1.52;;;0.20;;
69310;SDS011;56430;48.154;16.458;2023-01-09T12:41:12;1.25;;;0.10;;
69310;SDS011;56430;48.154;16.458;2023-01-09T12:43:58;2.50;;;0.10;;
69310;SDS011;56430;48.154;16.458;2023-01-09T12:46:34;0.82;;;0.00;;
69310;SDS011;56430;48.154;16.458;2023-01-09T12:49:10;1.10;;;0.10;;
69310;SDS011;56430;48.154;16.458;2023-01-09T12:51:45;1.20;;;0.30;;
69310;SDS011;56430;48.154;16.458;2023-01-09T12:54:15;0.70;;;0.10;;
69310;SDS011;56430;48.154;16.458;2023-01-09T12:56:47;0.98;;;0.10;;
69310;SDS011;56430;48.154;16.458;2023-01-09T12:59:20;1.58;;;0.20;;
69310;SDS011;56430;48.154;16.458;2023-01-09T13:01:57;0.80;;;0.10;;
69310;SDS011;56430;48.154;16.458;2023-01-09T13:04:27;1.10;;;0.10;;
69310;SDS011;56430;48.154;16.458;2023-01-09T13:06:57;2.15;;;0.17;;
69310;SDS011;56430;48.154;16.458;2023-01-09T13:09:26;1.23;;;0.10;;
69310;SDS011;56430;48.154;16.458;2023-01-09T13:12:01;1.77;;;0.28;;
69310;SDS011;56430;48.154;16.458;2023-01-09T13:14:35;1.17;;;0.10;;
69310;SDS011;56430;48.154;16.458;2023-01-09T13:17:06;1.52;;;0.15;;
69310;SDS011;56430;48.154;16.458;2023-01-09T13:19:37;1.30;;;0.20;;
69310;SDS011;56430;48.154;16.458;2023-01-09T13:22:05;2.35;;;0.30;;
69310;SDS011;56430;48.154;16.458;2023-01-09T13:24:34;1.33;;;0.10;;
69310;SDS011;56430;48.154;16.458;2023-01-09T13:27:05;1.70;;;0.20;;
69310;SDS011;56430;48.154;16.458;2023-01-09T13:29:36;6.00;;;0.40;;
69310;SDS011;56430;48.154;16.458;2023-01-09T13:32:11;3.35;;;0.38;;
69310;SDS011;56430;48.154;16.458;2023-01-09T13:35:10;1.55;;;0.20;;
69310;SDS011;56430;48.154;16.458;2023-01-09T13:37:38;1.73;;;0.20;;
69310;SDS011;56430;48.154;16.458;2023-01-09T13:40:23;1.70;;;0.20;;
69310;SDS011;56430;48.154;16.458;2023-01-09T13:42:57;1.83;;;0.30;;
69310;SDS011;56430;48.154;16.458;2023-01-09T13:45:27;1.42;;;0.17;;
69310;SDS011;56430;48.154;16.458;2023-01-09T13:50:44;2.95;;;0.30;;
69310;SDS011;56430;48.154;16.458;2023-01-09T13:56:11;1.90;;;0.40;;
69310;SDS011;56430;48.154;16.458;2023-01-09T14:01:40;2.28;;;0.30;;
69310;SDS011;56430;48.154;16.458;2023-01-09T14:07:15;1.60;;;0.30;;
69310;SDS011;56430;48.154;16.458;2023-01-09T14:09:46;1.50;;;0.20;;
69310;SDS011;56430;48.154;16.458;2023-01-09T14:12:15;2.15;;;0.40;;
69310;SDS011;56430;48.154;16.458;2023-01-09T14:14:46;2.50;;;0.50;;
69310;SDS011;56430;48.154;16.458;2023-01-09T14:17:15;3.15;;;0.82;;
69310;SDS011;56430;48.154;16.458;2023-01-09T14:19:44;3.40;;;0.70;;
69310;SDS011;56430;48.154;16.458;2023-01-09T14:22:22;4.18;;;0.30;;
69310;SDS011;56430;48.154;16.458;2023-01-09T14:24:50;3.53;;;0.55;;
69310;SDS011;56430;48.154;16.458;2023-01-09T14:30:35;2.40;;;0.55;;
69310;SDS011;56430;48.154;16.458;2023-01-09T14:33:04;2.43;;;0.50;;
69310;SDS011;56430;48.154;16.458;2023-01-09T14:35:51;1.83;;;0.30;;
69310;SDS011;56430;48.154;16.458;2023-01-09T14:38:27;2.15;;;0.40;;
69310;SDS011;56430;48.154;16.458;2023-01-09T14:40:59;2.00;;;0.20;;
69310;SDS011;56430;48.154;16.458;2023-01-09T14:43:31;2.60;;;0.40;;
69310;SDS011;56430;48.154;16.458;2023-01-09T14:46:07;2.20;;;0.33;;
69310;SDS011;56430;48.154;16.458;2023-01-09T14:48:39;4.88;;;0.45;;
69310;SDS011;56430;48.154;16.458;2023-01-09T14:51:15;3.28;;;0.43;;
69310;SDS011;56430;48.154;16.458;2023-01-09T14:53:44;1.85;;;0.40;;
69310;SDS011;56430;48.154;16.458;2023-01-09T14:56:23;3.28;;;0.30;;
69310;SDS011;56430;48.154;16.458;2023-01-09T14:59:02;3.10;;;0.30;;
69310;SDS011;56430;48.154;16.458;2023-01-09T15:01:32;3.13;;;0.30;;
69310;SDS011;56430;48.154;16.458;2023-01-09T15:04:01;8.02;;;0.73;;
69310;SDS011;56430;48.154;16.458;2023-01-09T15:06:31;1.70;;;0.30;;
69310;SDS011;56430;48.154;16.458;2023-01-09T15:09:01;1.48;;;0.20;;
69310;SDS011;56430;48.154;16.458;2023-01-09T15:11:30;3.00;;;0.63;;
69310;SDS011;56430;48.154;16.458;2023-01-09T15:13:58;1.80;;;0.30;;
69310;SDS011;56430;48.154;16.458;2023-01-09T15:16:26;1.42;;;0.20;;